Aérodrome :
LOGIN :

S'inscrire | Disclaimer

   EN    FR    IT 

 










Légende :    VFR   VFR Marginal   IFR   IFR Intensif   IFR Très Intensif
Visi : 
Plafond : 
>= 8 km
>= 3000ft
5 à 8 km
1000 à 3000 ft
1500m à 5 km
500 à 1000 ft
800 à 1500m
200 à 500 ft
< 800m
< 200 ft
Symboles :   Orages  Brouillard  Fortes neiges  Fortes précipitations  Vent > 20 kt
SIGMETs :   Divers  Orages  Givrage  Turbulence  Onde Orograph.  Cendres Volcan.







- Altitude de l'aérodrome : 600 ft
- Code IATA : VIE


LOWW - Vienna Schwechat

DERNIER METAR :
  • 201050Z 31012KT 9999 FEW040 BKN300 10/00 Q1024 NOSIG

METARs EXPIRÉS :
  • 201020Z 32010KT 9999 FEW040 BKN300 10/01 Q1024 NOSIG
  • 200950Z 32010KT 9999 FEW040 BKN300 09/01 Q1024 NOSIG
  • 200920Z 32009KT 280V340 9999 FEW035 BKN300 09/01 Q1024 NOSIG
  • 200850Z 30010KT CAVOK 08/02 Q1024 NOSIG
  • 200820Z 27008KT CAVOK 07/02 Q1024 NOSIG
  • 200750Z 29008KT CAVOK 07/02 Q1023 NOSIG

TAF TAF LOWW
Valide du 20 à 09h jusqu'au 21 à 15h UTC


200815Z 2009/2115 29008KT CAVOK TX11/2114Z TN01/2106Z
BECMG 2017/2019 25003KT
BECMG 2109/2111 30010KT 9999 FEW050 BKN090
Pas de NOTAMs connus pour ce terrain.



MET'MAP, la Météo Aéronautique d'un coup d'oeil ! - Copyright ORBIFLY Décembre 2007 - Disclaimer

ORBIFLY MET'MAP TEAM :

Programmation & Développement : Alexandra Zaïnal
Conception & Développement : Baudouin d'Aumeries
Co-Programmation & Développement : Marc-Olivier Méhu
Soutien technique & logistique : Manuel Goepfert

Contact : metmap@orbifly.com




SOURCES & CREDITS :

   NOAA